createdAt,value
2023-03-13T00:01:41.680Z,8.83
2023-03-13T00:07:05.326Z,8.50
2023-03-13T00:12:27.709Z,9.25
2023-03-13T00:17:49.946Z,9.48
2023-03-13T00:23:12.394Z,9.80
2023-03-13T00:28:35.753Z,9.90
2023-03-13T00:34:01.865Z,9.33
2023-03-13T00:39:25.316Z,9.55
2023-03-13T00:44:48.073Z,10.32
2023-03-13T00:50:10.452Z,10.43
2023-03-13T00:55:32.840Z,10.43
2023-03-13T01:00:55.044Z,10.25
2023-03-13T01:06:22.331Z,10.40
2023-03-13T01:11:48.250Z,10.60
2023-03-13T01:17:10.741Z,8.88
2023-03-13T01:22:33.144Z,9.38
2023-03-13T01:27:55.601Z,7.87
2023-03-13T01:33:18.328Z,6.47
2023-03-13T01:38:41.095Z,6.50
2023-03-13T01:44:04.393Z,6.70
2023-03-13T01:49:41.997Z,6.58
2023-03-13T01:55:16.718Z,6.25
2023-03-13T02:00:43.043Z,6.90
2023-03-13T02:06:08.394Z,7.10
2023-03-13T02:11:54.893Z,7.20
2023-03-13T02:17:18.196Z,6.77
2023-03-13T02:22:57.307Z,8.43
2023-03-13T02:28:24.052Z,8.47
2023-03-13T02:33:49.989Z,9.40
2023-03-13T02:39:18.562Z,9.30
2023-03-13T02:44:44.815Z,9.13
2023-03-13T02:50:07.074Z,9.60
2023-03-13T02:55:45.857Z,9.53
2023-03-13T03:01:08.660Z,10.97
2023-03-13T03:06:31.685Z,10.87
2023-03-13T03:11:54.276Z,11.47
2023-03-13T03:17:16.941Z,10.93
2023-03-13T03:22:40.929Z,10.87
2023-03-13T03:28:03.175Z,11.70
2023-03-13T03:33:25.367Z,11.93
2023-03-13T03:38:48.320Z,13.03
2023-03-13T03:44:11.488Z,13.93
2023-03-13T03:49:34.036Z,13.57
2023-03-13T03:54:56.682Z,13.60
2023-03-13T04:00:22.568Z,12.97
2023-03-13T04:05:45.088Z,13.98
2023-03-13T04:11:07.435Z,15.10
2023-03-13T04:16:30.548Z,15.20
2023-03-13T04:21:52.841Z,14.77
2023-03-13T04:27:15.084Z,15.60
2023-03-13T04:32:37.464Z,16.10
2023-03-13T04:38:01.498Z,15.97
2023-03-13T04:43:24.354Z,16.00
2023-03-13T04:48:47.331Z,17.53
2023-03-13T04:54:09.677Z,16.93
2023-03-13T04:59:33.008Z,17.73
2023-03-13T05:04:55.450Z,17.95
2023-03-13T05:10:18.077Z,18.10
2023-03-13T05:15:40.375Z,18.57
2023-03-13T05:21:02.764Z,20.40
2023-03-13T05:26:25.007Z,18.57
2023-03-13T05:31:47.472Z,18.53
2023-03-13T05:37:09.897Z,20.47
2023-03-13T05:42:32.172Z,20.87
2023-03-13T05:47:55.812Z,20.00
2023-03-13T05:53:18.019Z,20.48
2023-03-13T05:58:40.410Z,21.13
2023-03-13T06:04:02.894Z,21.30
2023-03-13T06:09:25.476Z,22.37
2023-03-13T06:14:48.109Z,20.53
2023-03-13T06:20:10.681Z,22.03
2023-03-13T06:25:33.543Z,21.33
2023-03-13T06:30:56.656Z,21.87
2023-03-13T06:36:20.157Z,21.00
2023-03-13T06:41:43.027Z,21.30
2023-03-13T06:47:05.433Z,22.05
2023-03-13T06:52:41.426Z,20.93
2023-03-13T06:57:55.233Z,17.17
2023-03-13T07:03:19.048Z,19.40
2023-03-13T07:08:42.186Z,18.27
2023-03-13T07:14:16.417Z,16.13
2023-03-13T07:19:30.837Z,16.57
2023-03-13T07:24:53.912Z,15.20
2023-03-13T07:30:18.039Z,15.90
2023-03-13T07:35:41.265Z,13.33
2023-03-13T07:41:10.402Z,12.07
2023-03-13T07:46:34.966Z,13.03
2023-03-13T07:51:58.068Z,10.30
2023-03-13T07:57:21.684Z,11.13
2023-03-13T08:02:43.964Z,7.97
2023-03-13T08:08:06.981Z,8.93
2023-03-13T08:13:30.106Z,6.55
2023-03-13T08:19:07.094Z,8.63
2023-03-13T08:24:30.578Z,9.88
2023-03-13T08:29:53.496Z,7.93
2023-03-13T08:35:16.834Z,8.00
2023-03-13T08:40:40.091Z,8.30
2023-03-13T08:46:04.526Z,7.63
2023-03-13T08:51:34.333Z,7.90
2023-03-13T09:02:14.836Z,7.67
2023-03-13T09:07:37.556Z,7.40
2023-03-13T09:12:59.758Z,7.75
2023-03-13T09:18:22.137Z,7.90
2023-03-13T09:23:45.173Z,8.40
2023-03-13T09:29:08.067Z,7.83
2023-03-13T09:34:32.176Z,9.48
2023-03-13T09:39:57.613Z,9.80
2023-03-13T09:45:34.856Z,9.53
2023-03-13T09:51:17.511Z,9.53
2023-03-13T09:56:53.508Z,8.93
2023-03-13T10:02:24.854Z,8.95
2023-03-13T10:07:58.717Z,8.67
2023-03-13T10:13:28.410Z,9.30
2023-03-13T10:18:52.092Z,10.00
2023-03-13T10:24:30.515Z,9.65
2023-03-13T10:30:02.807Z,8.47
2023-03-13T10:35:28.837Z,8.98
2023-03-13T10:40:54.126Z,8.33
2023-03-13T10:46:17.366Z,9.60
2023-03-13T10:51:48.459Z,8.63
2023-03-13T10:57:26.914Z,8.70
2023-03-13T11:02:53.906Z,8.93
2023-03-13T11:08:35.485Z,9.03
2023-03-13T11:13:59.817Z,9.77
2023-03-13T11:19:48.332Z,9.30
2023-03-13T11:25:24.843Z,9.75
2023-03-13T11:31:17.980Z,10.55
2023-03-13T11:37:15.178Z,10.23
2023-03-13T11:42:54.112Z,8.67
2023-03-13T11:48:41.147Z,8.33
2023-03-13T11:54:45.276Z,9.17
2023-03-13T12:00:29.266Z,8.40
2023-03-13T12:06:21.846Z,9.20
2023-03-13T12:11:58.685Z,9.17
2023-03-13T12:17:49.214Z,9.17
2023-03-13T12:23:42.753Z,10.20
2023-03-13T12:29:40.932Z,10.63
2023-03-13T12:35:38.367Z,10.83
2023-03-13T12:41:22.257Z,10.50
2023-03-13T12:47:17.723Z,9.40
2023-03-13T12:53:00.236Z,9.23
2023-03-13T12:58:56.241Z,8.03
2023-03-13T13:04:31.064Z,7.80
2023-03-13T13:10:07.096Z,6.80
2023-03-13T13:15:53.989Z,6.70
2023-03-13T13:21:31.486Z,6.47
2023-03-13T13:27:02.091Z,5.42
2023-03-13T13:32:29.271Z,5.90
2023-03-13T13:37:53.199Z,5.87
2023-03-13T13:43:20.123Z,6.13
2023-03-13T13:48:57.480Z,4.67
2023-03-13T13:54:53.864Z,4.87
2023-03-13T14:00:32.227Z,4.70
2023-03-13T14:05:58.353Z,4.10
2023-03-13T14:11:34.537Z,4.37
2023-03-13T14:17:02.992Z,4.58
2023-03-13T14:22:27.283Z,4.20
2023-03-13T14:27:51.652Z,4.03
2023-03-13T14:33:14.470Z,3.77
2023-03-13T14:38:41.856Z,3.90
2023-03-13T14:44:08.938Z,4.80
2023-03-13T14:49:37.296Z,4.80
2023-03-13T14:55:16.671Z,3.70
2023-03-13T15:00:54.833Z,4.37
2023-03-13T15:06:36.226Z,4.47
2023-03-13T15:12:12.088Z,5.27
2023-03-13T15:17:44.669Z,4.80
2023-03-13T15:23:06.992Z,4.63
2023-03-13T15:28:32.904Z,5.87
2023-03-13T15:33:57.742Z,5.30
2023-03-13T15:39:30.759Z,4.57
2023-03-13T15:44:52.961Z,5.40
2023-03-13T15:50:27.153Z,5.10
2023-03-13T15:55:49.693Z,5.30
2023-03-13T16:01:12.730Z,6.43
2023-03-13T16:06:38.958Z,6.25
2023-03-13T16:12:01.402Z,5.80
2023-03-13T16:17:32.509Z,6.10
2023-03-13T16:22:55.052Z,5.97
2023-03-13T16:28:19.257Z,5.80
2023-03-13T16:33:41.487Z,5.60
2023-03-13T16:39:05.942Z,5.90
2023-03-13T16:44:28.215Z,5.63
2023-03-13T16:49:51.081Z,5.35
2023-03-13T16:55:13.912Z,5.67
2023-03-13T17:00:40.058Z,5.47
2023-03-13T17:06:03.135Z,5.50
2023-03-13T17:11:27.655Z,5.62
2023-03-13T17:16:53.660Z,5.65
2023-03-13T17:22:18.097Z,5.67
2023-03-13T17:27:40.263Z,5.73
2023-03-13T17:33:03.271Z,5.27
2023-03-13T17:38:25.773Z,5.67
2023-03-13T17:43:49.028Z,5.63
2023-03-13T17:49:13.340Z,6.30
2023-03-13T17:54:35.848Z,6.28
2023-03-13T17:59:58.605Z,5.00
2023-03-13T18:05:21.121Z,5.03
2023-03-13T18:10:45.164Z,4.87
2023-03-13T18:16:07.462Z,4.92
2023-03-13T18:21:30.264Z,5.28
2023-03-13T18:26:55.763Z,5.62
2023-03-13T18:32:21.720Z,4.62
2023-03-13T18:37:46.280Z,4.95
2023-03-13T18:43:08.890Z,4.42
2023-03-13T18:48:31.216Z,4.62
2023-03-13T18:53:53.612Z,4.45
2023-03-13T18:59:21.184Z,5.30
2023-03-13T19:04:43.733Z,5.73
2023-03-13T19:10:08.880Z,5.80
2023-03-13T19:15:33.562Z,5.75
2023-03-13T19:20:56.268Z,5.10
2023-03-13T19:26:23.265Z,5.42
2023-03-13T19:31:45.841Z,5.33
2023-03-13T19:37:09.061Z,5.58
2023-03-13T19:42:31.271Z,5.65
2023-03-13T19:47:54.689Z,6.00
2023-03-13T19:53:17.158Z,5.70
2023-03-13T19:58:39.805Z,6.28
2023-03-13T20:04:02.407Z,7.77
2023-03-13T20:09:27.888Z,6.97
2023-03-13T20:14:50.809Z,6.80
2023-03-13T20:20:14.537Z,6.92
2023-03-13T20:25:37.077Z,6.15
2023-03-13T20:31:01.037Z,6.17
2023-03-13T20:36:30.408Z,6.40
2023-03-13T20:41:54.564Z,16.03
2023-03-13T20:47:17.181Z,7.20
2023-03-13T20:52:39.525Z,6.00
2023-03-13T20:58:01.769Z,6.43
2023-03-13T21:03:24.033Z,10.77
2023-03-13T21:08:46.887Z,6.17
2023-03-13T21:14:09.579Z,6.13
2023-03-13T21:19:32.227Z,6.37
2023-03-13T21:25:11.812Z,5.60
2023-03-13T21:30:35.576Z,6.33
2023-03-13T21:35:58.793Z,5.80
2023-03-13T21:41:25.400Z,5.70
2023-03-13T21:46:49.381Z,4.93
2023-03-13T21:52:11.753Z,5.20
2023-03-13T21:57:34.843Z,4.73
2023-03-13T22:02:57.597Z,4.97
2023-03-13T22:08:19.952Z,4.77
2023-03-13T22:13:42.409Z,4.73
2023-03-13T22:19:06.386Z,4.87
2023-03-13T22:24:29.129Z,5.20
2023-03-13T22:29:52.174Z,4.83
2023-03-13T22:35:14.965Z,4.60
2023-03-13T22:40:38.262Z,5.20
2023-03-13T22:46:00.930Z,4.50
2023-03-13T22:51:27.839Z,4.90
2023-03-13T22:56:50.230Z,4.87
2023-03-13T23:02:12.451Z,4.90
2023-03-13T23:07:37.147Z,4.00
2023-03-13T23:12:59.377Z,3.90
2023-03-13T23:18:21.574Z,3.87
2023-03-13T23:23:43.866Z,4.37
2023-03-13T23:29:06.861Z,4.00
2023-03-13T23:34:29.178Z,4.27
2023-03-13T23:39:51.884Z,3.92
2023-03-13T23:45:14.364Z,4.23
2023-03-13T23:50:36.871Z,4.03
2023-03-13T23:56:05.040Z,4.10
